5 day graph

You are here

Hive Data

Page: 1 of 16645  Records: 998690

Row Date Time Hive Temp Hive Humidity Outside Temp Outside Humidity Bottom Board Temp Outside Wall Temp Electronics Temp Light Levels inHG Fan Heat Cover Notes
Clear Sorted By: Bottom Board Temp descending, Outside Temp ascending, Cover ascending, Row descending
View 266309 Nov 30 2014 10:20:33am 53.96 69 50.72 55 120.65 43.7 50 947 29.45 0 1 0 NA
View 266310 Nov 30 2014 10:21:34am 53.96 70 51.26 55 120.65 44.6 50 948 29.45 0 1 0 NA
View 266311 Nov 30 2014 10:22:36am 53.96 70 51.8 54 120.65 44.6 50 948 29.45 0 1 0 NA
View 266312 Nov 30 2014 10:23:37am 53.96 70 52.34 53 120.65 45.5 50 948 29.45 0 1 0 NA
View 266305 Nov 30 2014 10:16:29am 53.96 71 47.3 59 120.2 41.45 50 947 29.45 0 1 0 NA
View 266306 Nov 30 2014 10:17:30am 53.96 71 48.38 59 120.2 42.35 50 946 29.46 0 1 0 NA
View 266307 Nov 30 2014 10:18:32am 53.96 70 49.46 57 120.2 42.8 50 947 29.46 0 1 0 NA
View 266308 Nov 30 2014 10:19:33am 53.96 69 50 55 120.2 43.25 50 945 29.45 0 1 0 NA
View 266336 Nov 30 2014 10:47:59am 54.14 65 59.72 43 120.2 54.05 55.4 955 29.45 0 1 0 NA
View 266300 Nov 30 2014 10:11:25am 53.96 71 41.72 65 119.75 37.4 50 945 29.46 0 1 0 NA
View 266301 Nov 30 2014 10:12:25am 53.96 71 42.98 65 119.75 38.3 50 945 29.46 0 1 0 NA
View 266302 Nov 30 2014 10:13:27am 53.96 73 44.24 63 119.75 39.2 50 945 29.45 0 1 0 NA
View 266303 Nov 30 2014 10:14:28am 53.96 73 45.32 62 119.75 40.1 50 946 29.45 0 1 0 NA
View 266304 Nov 30 2014 10:15:29am 53.96 73 46.4 60 119.75 40.55 50 946 29.45 0 1 0 NA
View 266334 Nov 30 2014 10:45:58am 53.96 64 59.18 43 119.75 53.6 53.6 954 29.45 0 1 0 NA
View 266335 Nov 30 2014 10:46:59am 53.96 65 59.54 44 119.75 54.05 53.6 955 29.45 0 1 0 NA
View 266295 Nov 30 2014 10:06:20am 54.14 70 34.52 69 119.3 32.9 50 941 29.45 0 1 0 NA
View 266296 Nov 30 2014 10:07:22am 53.96 70 35.96 70 119.3 33.8 50 942 29.45 0 1 0 NA
View 266297 Nov 30 2014 10:08:21am 53.96 70 37.4 70 119.3 35.15 50 942 29.45 0 1 0 NA
View 266298 Nov 30 2014 10:09:23am 53.96 71 39.02 69 119.3 36.05 50 944 29.45 0 1 0 NA
View 266299 Nov 30 2014 10:10:24am 53.96 71 40.46 67 119.3 36.95 50 944 29.45 0 1 0 NA
View 266332 Nov 30 2014 10:43:55am 53.96 64 58.64 46 119.3 53.15 53.6 953 29.45 0 1 0 NA
View 266333 Nov 30 2014 10:44:56am 53.96 61 59 46 119.3 53.15 53.6 955 29.45 0 1 0 NA
View 266356 Nov 30 2014 11:08:20am 54.5 65 63.14 39 119.3 60.35 57.2 959 29.44 0 1 0 NA
View 266291 Nov 30 2014 10:02:16am 54.14 73 31.82 69 118.85 30.2 48.2 877 29.45 0 1 0 NA
View 266292 Nov 30 2014 10:03:16am 54.14 73 32.18 69 118.85 30.2 50 896 29.45 0 1 0 NA
View 266293 Nov 30 2014 10:04:18am 54.14 73 32.54 69 118.85 31.1 50 919 29.45 0 1 0 NA
View 266294 Nov 30 2014 10:05:19am 54.14 71 33.26 70 118.85 32 50 933 29.45 0 1 0 NA
View 266330 Nov 30 2014 10:41:54am 53.96 68 58.28 46 118.85 52.25 53.6 954 29.45 0 1 0 NA
View 266331 Nov 30 2014 10:42:55am 53.96 66 58.46 46 118.85 52.7 53.6 954 29.45 0 1 0 NA
View 266355 Nov 30 2014 11:07:18am 54.5 65 62.78 40 118.85 59.9 57.2 958 29.44 0 1 0 NA
View 266290 Nov 30 2014 10:01:15am 54.14 74 31.64 68 118.4 30.2 48.2 890 29.45 0 1 0 NA
View 266289 Nov 30 2014 10:00:14am 53.96 74 31.82 68 118.4 30.2 48.2 887 29.45 0 1 0 NA
View 266288 Nov 30 2014 9:59:12am 53.96 74 31.82 68 118.4 29.75 48.2 875 29.45 0 1 0 NA
View 266329 Nov 30 2014 10:40:52am 53.96 67 57.92 47 118.4 52.25 53.6 953 29.45 0 1 0 NA
View 266337 Nov 30 2014 10:49:00am 54.14 65 59.9 44 118.4 54.5 55.4 955 29.45 0 1 0 NA
View 266353 Nov 30 2014 11:05:16am 54.5 64 62.06 40 118.4 59 57.2 957 29.44 0 1 0 NA
View 266354 Nov 30 2014 11:06:17am 54.5 64 62.42 39 118.4 59.45 57.2 958 29.45 0 1 0 NA
View 266284 Nov 30 2014 9:55:09am 53.96 71 31.1 72 117.95 30.2 48.2 868 29.45 0 1 0 NA
View 266285 Nov 30 2014 9:56:10am 53.96 70 31.64 72 117.95 30.2 48.2 875 29.45 0 1 0 NA
View 266287 Nov 30 2014 9:58:13am 53.96 74 31.82 70 117.95 30.2 48.2 867 29.45 0 1 0 NA
View 266286 Nov 30 2014 9:57:11am 53.96 73 31.82 70 117.95 30.2 48.2 875 29.45 0 1 0 NA
View 266313 Nov 30 2014 10:24:37am 53.96 70 52.7 53 117.95 45.5 50 949 29.45 0 1 0 NA
View 266327 Nov 30 2014 10:38:51am 53.96 67 57.38 47 117.95 51.35 53.6 953 29.45 0 1 0 NA
View 266328 Nov 30 2014 10:39:53am 53.96 68 57.56 47 117.95 51.8 53.6 953 29.45 0 1 0 NA
View 266352 Nov 30 2014 11:04:14am 54.5 64 61.7 39 117.95 58.55 57.2 957 29.44 0 1 0 NA
View 266357 Nov 30 2014 11:09:19am 54.68 65 62.96 36 117.95 60.35 57.2 957 29.44 0 1 0 NA
View 266279 Nov 30 2014 9:50:03am 53.78 72 28.04 75 117.5 29.3 48.2 917 29.45 0 1 0 NA
View 266280 Nov 30 2014 9:51:05am 53.96 72 28.58 75 117.5 29.75 48.2 909 29.45 0 1 0 NA
View 266281 Nov 30 2014 9:52:06am 53.96 72 29.3 74 117.5 30.2 48.2 909 29.45 0 1 0 NA
View 266282 Nov 30 2014 9:53:07am 53.96 71 29.84 73 117.5 30.2 48.2 897 29.45 0 1 0 NA
View 266283 Nov 30 2014 9:54:09am 53.96 71 30.56 73 117.5 30.2 48.2 869 29.45 0 1 0 NA
View 266326 Nov 30 2014 10:37:50am 53.96 68 57.2 47 117.5 50.9 51.8 953 29.45 0 1 0 NA
View 266351 Nov 30 2014 11:03:14am 54.32 64 61.52 40 117.5 58.55 57.2 957 29.45 0 1 0 NA
View 266276 Nov 30 2014 9:47:01am 53.78 72 27.14 75 117.05 27.5 48.2 895 29.45 0 1 0 NA
View 266277 Nov 30 2014 9:48:02am 53.96 71 27.32 75 117.05 27.95 48.2 905 29.45 0 1 0 NA
View 266278 Nov 30 2014 9:49:04am 53.78 72 27.68 74 117.05 28.4 48.2 921 29.45 0 1 0 NA
View 266325 Nov 30 2014 10:36:49am 53.96 68 56.84 47 117.05 50.45 51.8 952 29.46 0 1 0 NA
View 266350 Nov 30 2014 11:02:13am 54.32 63 61.16 40 117.05 58.1 57.2 958 29.44 0 1 0 NA
View 266273 Nov 30 2014 9:43:58am 53.78 70 26.78 74 116.6 27.05 48.2 855 29.45 0 1 0 NA